Strona główna
METAR-TAF:

METAR-TAF

Lotnisko :

Olney-Noble Airport

Olney-Noble, Illinois, Stany Zjednoczone

Szerokość geograficzna: 38-43-19N, Długość geograficzna: 088-10-35W, wysokość: 147 m

Aktualna obserwacja pogody

Raport powstał 21 minut temu, godzina 07:35 UTC
Wiatr 10 kt od północny zachód
Temperatura -10°C
Wilgotność 85%
Ciśnienie 1035 hPa
Widzialność: 16.1 km
Zachmurzenie całkowite na wysokości 1400 ft
słaby śnieg

METAR: KOLY 200735Z AUTO 31010KT 10SM -SN OVC014 M10/M12 A3056 RMK AO2 T10961121

czas: 01:56 (07:56 UTC)


TAF: brakujący

Obserwacja i prognoza pogody dla ponad 4000 lotnisk (raport METAR i TAF).

Dostępne stacje oznaczono żółtymi i czerwonymi punktami na mapie.

Najedź kursorem aby zobaczyć nazwę stacji.

Kliknij aby zobaczyć obserwacje i prognozy pogody.

Aby zmienić mapę: kliknij na zielony przycisk z czarnym krzyżykiem, aby powiększyć; na zielony przycisk z myślnikiem, aby pomniejszyć; na zielone strzałki, aby przejść do map sąsiednich.


METAR-TAF: